createdAt,value
2023-02-05T00:00:49.867Z,3.18
2023-02-05T00:03:16.462Z,3.30
2023-02-05T00:05:43.292Z,3.39
2023-02-05T00:08:09.890Z,3.39
2023-02-05T00:10:36.533Z,3.46
2023-02-05T00:13:03.168Z,3.32
2023-02-05T00:15:29.738Z,3.36
2023-02-05T00:17:56.292Z,3.36
2023-02-05T00:20:22.851Z,3.35
2023-02-05T00:22:49.417Z,3.32
2023-02-05T00:25:15.989Z,3.22
2023-02-05T00:27:42.591Z,3.24
2023-02-05T00:30:09.889Z,3.32
2023-02-05T00:32:37.369Z,3.30
2023-02-05T00:35:04.160Z,3.30
2023-02-05T00:40:16.520Z,3.37
2023-02-05T00:42:43.033Z,3.34
2023-02-05T00:45:09.957Z,3.25
2023-02-05T00:47:36.488Z,3.14
2023-02-05T00:50:03.345Z,3.10
2023-02-05T00:52:29.989Z,3.24
2023-02-05T00:54:56.598Z,3.26
2023-02-05T00:57:24.820Z,3.27
2023-02-05T00:59:52.500Z,3.22
2023-02-05T01:02:25.278Z,3.28
2023-02-05T01:04:52.458Z,3.25
2023-02-05T01:07:20.338Z,3.15
2023-02-05T01:09:46.887Z,3.06
2023-02-05T01:12:14.441Z,3.13
2023-02-05T01:14:42.792Z,3.18
2023-02-05T01:17:09.558Z,3.21
2023-02-05T01:19:37.109Z,3.24
2023-02-05T01:22:04.854Z,3.24
2023-02-05T01:24:31.845Z,3.27
2023-02-05T01:26:58.901Z,3.27
2023-02-05T01:29:28.403Z,3.21
2023-02-05T01:34:33.649Z,3.12
2023-02-05T01:37:00.238Z,3.17
2023-02-05T01:39:26.785Z,3.14
2023-02-05T01:41:53.329Z,3.22
2023-02-05T01:44:25.232Z,3.12
2023-02-05T01:46:54.369Z,3.14
2023-02-05T01:49:28.397Z,3.27
2023-02-05T01:51:58.551Z,3.13
2023-02-05T02:02:26.942Z,3.32
2023-02-05T02:04:58.349Z,3.29
2023-02-05T02:07:25.282Z,3.32
2023-02-05T02:09:53.628Z,3.29
2023-02-05T02:12:25.225Z,3.22
2023-02-05T02:14:55.705Z,3.24
2023-02-05T02:17:23.609Z,3.24
2023-02-05T02:20:04.284Z,3.19
2023-02-05T02:22:55.322Z,3.12
2023-02-05T02:25:30.260Z,3.04
2023-02-05T02:28:02.938Z,3.23
2023-02-05T02:30:44.145Z,3.16
2023-02-05T02:33:27.536Z,3.21
2023-02-05T02:36:02.532Z,3.13
2023-02-05T02:38:49.357Z,3.16
2023-02-05T02:41:25.329Z,3.16
2023-02-05T02:44:11.775Z,3.28
2023-02-05T02:46:43.192Z,2.94
2023-02-05T02:49:16.978Z,2.98
2023-02-05T02:51:45.010Z,3.07
2023-02-05T02:54:16.754Z,3.04
2023-02-05T02:56:45.151Z,2.93
2023-02-05T02:59:18.472Z,2.79
2023-02-05T03:01:53.933Z,2.70
2023-02-05T03:04:45.402Z,2.73
2023-02-05T03:07:18.921Z,2.70
2023-02-05T03:10:00.546Z,2.86
2023-02-05T03:15:05.848Z,2.92
2023-02-05T03:17:32.619Z,2.96
2023-02-05T03:20:29.863Z,3.02
2023-02-05T03:22:56.933Z,3.08
2023-02-05T03:25:26.866Z,3.10
2023-02-05T03:27:54.587Z,3.21
2023-02-05T03:30:22.591Z,3.16
2023-02-05T03:33:01.162Z,3.21
2023-02-05T03:35:34.059Z,3.24
2023-02-05T03:38:14.120Z,3.21
2023-02-05T03:40:46.615Z,3.22
2023-02-05T03:43:50.373Z,3.05
2023-02-05T03:46:31.261Z,2.96
2023-02-05T03:49:16.191Z,2.86
2023-02-05T03:52:07.885Z,2.76
2023-02-05T03:55:19.125Z,2.77
2023-02-05T03:57:59.216Z,2.77
2023-02-05T04:00:27.005Z,2.70
2023-02-05T04:02:53.830Z,2.78
2023-02-05T04:07:54.971Z,2.47
2023-02-05T04:10:21.520Z,2.27
2023-02-05T04:12:48.058Z,2.46
2023-02-05T04:15:14.915Z,2.38
2023-02-05T04:20:14.498Z,2.35
2023-02-05T04:22:41.065Z,2.36
2023-02-05T04:25:07.782Z,2.41
2023-02-05T04:27:34.348Z,2.40
2023-02-05T04:30:00.904Z,2.40
2023-02-05T04:35:06.744Z,2.47
2023-02-05T04:37:33.295Z,2.48
2023-02-05T04:39:59.907Z,2.53
2023-02-05T04:42:26.449Z,2.53
2023-02-05T04:44:54.347Z,2.52
2023-02-05T04:47:20.927Z,2.54
2023-02-05T04:49:47.420Z,2.70
2023-02-05T04:52:13.924Z,2.72
2023-02-05T04:54:40.465Z,2.78
2023-02-05T04:57:06.955Z,2.63
2023-02-05T04:59:33.530Z,2.54
2023-02-05T05:02:00.367Z,2.66
2023-02-05T05:04:27.051Z,2.73
2023-02-05T05:06:53.587Z,2.67
2023-02-05T05:11:57.840Z,2.65
2023-02-05T05:14:24.537Z,2.64
2023-02-05T05:16:51.039Z,2.73
2023-02-05T05:19:17.531Z,2.74
2023-02-05T05:21:44.198Z,2.67
2023-02-05T05:24:10.702Z,2.63
2023-02-05T05:26:39.340Z,2.63
2023-02-05T05:29:06.348Z,2.73
2023-02-05T05:34:11.235Z,2.69
2023-02-05T05:36:40.065Z,2.60
2023-02-05T05:39:25.327Z,2.61
2023-02-05T05:42:10.432Z,2.65
2023-02-05T05:44:36.943Z,2.59
2023-02-05T05:47:03.891Z,2.56
2023-02-05T05:49:30.435Z,2.75
2023-02-05T05:51:56.933Z,2.71
2023-02-05T05:54:23.473Z,2.69
2023-02-05T05:56:50.042Z,2.79
2023-02-05T05:59:16.906Z,2.91
2023-02-05T06:01:43.523Z,2.88
2023-02-05T06:04:10.086Z,2.80
2023-02-05T06:06:36.712Z,2.76
2023-02-05T06:09:03.305Z,2.78
2023-02-05T06:11:29.823Z,2.64
2023-02-05T06:13:56.357Z,2.69
2023-02-05T06:16:22.895Z,2.52
2023-02-05T06:21:26.991Z,2.45
2023-02-05T06:23:53.546Z,2.43
2023-02-05T06:26:20.036Z,2.46
2023-02-05T06:28:46.566Z,2.55
2023-02-05T06:31:13.166Z,2.60
2023-02-05T06:33:40.013Z,2.69
2023-02-05T06:36:07.071Z,2.67
2023-02-05T06:38:33.586Z,2.72
2023-02-05T06:41:00.161Z,2.78
2023-02-05T06:43:27.080Z,2.83
2023-02-05T06:45:53.753Z,2.80
2023-02-05T06:48:20.262Z,2.84
2023-02-05T06:50:46.780Z,2.96
2023-02-05T06:53:13.467Z,2.97
2023-02-05T06:58:18.625Z,3.00
2023-02-05T07:00:45.282Z,2.87
2023-02-05T07:03:11.910Z,2.83
2023-02-05T07:05:38.400Z,2.97
2023-02-05T07:08:06.847Z,2.87
2023-02-05T07:10:33.584Z,2.81
2023-02-05T07:13:00.114Z,2.85
2023-02-05T07:15:26.625Z,2.95
2023-02-05T07:17:53.158Z,3.05
2023-02-05T07:20:19.898Z,3.04
2023-02-05T07:22:47.308Z,3.08
2023-02-05T07:25:13.996Z,3.09
2023-02-05T07:27:40.631Z,3.16
2023-02-05T07:30:07.738Z,3.20
2023-02-05T07:32:34.255Z,3.17
2023-02-05T07:35:00.901Z,3.78
2023-02-05T07:37:27.454Z,3.64
2023-02-05T07:39:53.986Z,3.38
2023-02-05T07:42:20.603Z,3.35
2023-02-05T07:44:47.410Z,3.38
2023-02-05T07:47:13.933Z,3.27
2023-02-05T07:49:40.428Z,3.26
2023-02-05T07:52:07.026Z,3.29
2023-02-05T07:54:33.672Z,3.34
2023-02-05T07:57:01.922Z,3.32
2023-02-05T07:59:28.590Z,3.27
2023-02-05T08:01:55.232Z,3.27
2023-02-05T08:04:21.767Z,3.29
2023-02-05T08:06:48.268Z,3.34
2023-02-05T08:09:14.826Z,3.30
2023-02-05T08:11:41.386Z,3.37
2023-02-05T08:14:08.083Z,3.32
2023-02-05T08:16:34.875Z,3.28
2023-02-05T08:19:01.393Z,3.21
2023-02-05T08:21:27.955Z,3.25
2023-02-05T08:23:57.567Z,3.26
2023-02-05T08:26:24.314Z,3.31
2023-02-05T08:28:50.817Z,3.38
2023-02-05T08:31:19.436Z,3.32
2023-02-05T08:33:47.854Z,3.26
2023-02-05T08:36:14.453Z,3.41
2023-02-05T08:38:41.020Z,3.51
2023-02-05T08:41:12.799Z,3.47
2023-02-05T08:43:47.559Z,3.60
2023-02-05T08:48:59.238Z,3.48
2023-02-05T08:51:25.803Z,3.46
2023-02-05T08:53:53.592Z,3.47
2023-02-05T08:56:20.499Z,3.51
2023-02-05T09:01:20.675Z,3.69
2023-02-05T09:03:48.018Z,3.60
2023-02-05T09:06:16.521Z,3.65
2023-02-05T09:08:43.586Z,3.73
2023-02-05T09:13:41.481Z,3.60
2023-02-05T09:16:11.330Z,3.74
2023-02-05T09:21:16.562Z,3.83
2023-02-05T09:23:43.080Z,3.79
2023-02-05T09:26:09.695Z,3.75
2023-02-05T09:31:16.204Z,3.80
2023-02-05T09:33:45.456Z,3.75
2023-02-05T09:36:18.974Z,6.32
2023-02-05T09:38:45.976Z,5.74
2023-02-05T09:41:12.566Z,5.61
2023-02-05T09:43:39.194Z,5.19
2023-02-05T09:46:14.554Z,5.08
2023-02-05T09:51:25.778Z,4.31
2023-02-05T09:56:28.565Z,4.30
2023-02-05T10:01:45.325Z,3.97
2023-02-05T10:10:05.015Z,3.99
2023-02-05T10:13:13.454Z,4.04
2023-02-05T10:15:51.719Z,4.06
2023-02-05T10:18:24.173Z,3.95
2023-02-05T10:21:00.934Z,3.91
2023-02-05T10:23:43.182Z,3.92
2023-02-05T10:26:14.014Z,3.97
2023-02-05T10:28:47.028Z,3.97
2023-02-05T10:31:16.413Z,3.88
2023-02-05T10:33:50.325Z,3.92
2023-02-05T10:36:22.015Z,3.88
2023-02-05T10:38:51.066Z,3.90
2023-02-05T10:41:52.881Z,4.05
2023-02-05T10:44:22.224Z,3.94
2023-02-05T10:46:55.252Z,3.88
2023-02-05T10:49:44.382Z,3.81
2023-02-05T10:52:12.994Z,4.55
2023-02-05T10:54:40.609Z,4.15
2023-02-05T10:57:13.766Z,4.12
2023-02-05T11:02:39.282Z,3.97
2023-02-05T11:07:58.783Z,4.05
2023-02-05T11:10:28.522Z,4.04
2023-02-05T11:13:01.750Z,4.04
2023-02-05T11:15:31.045Z,4.08
2023-02-05T11:18:04.987Z,4.05
2023-02-05T11:20:40.561Z,4.11
2023-02-05T11:23:21.220Z,4.08
2023-02-05T11:26:06.979Z,4.17
2023-02-05T11:28:39.903Z,4.12
2023-02-05T11:31:27.175Z,4.03
2023-02-05T11:34:08.941Z,4.14
2023-02-05T11:36:47.673Z,4.15
2023-02-05T11:39:27.636Z,4.29
2023-02-05T11:41:56.759Z,4.34
2023-02-05T11:47:09.652Z,4.27
2023-02-05T11:52:13.887Z,4.34
2023-02-05T11:54:46.229Z,4.38
2023-02-05T12:00:18.122Z,4.55
2023-02-05T12:02:44.818Z,4.55
2023-02-05T12:05:13.998Z,4.52
2023-02-05T12:07:58.722Z,4.84
2023-02-05T12:10:32.869Z,4.93
2023-02-05T12:13:03.300Z,4.92
2023-02-05T12:15:41.869Z,4.86
2023-02-05T12:18:29.583Z,4.83
2023-02-05T12:21:15.674Z,4.76
2023-02-05T12:23:57.447Z,4.77
2023-02-05T12:26:45.368Z,4.73
2023-02-05T12:29:22.875Z,4.73
2023-02-05T12:31:59.164Z,4.67
2023-02-05T12:35:04.689Z,4.65
2023-02-05T12:43:40.292Z,4.45
2023-02-05T12:46:32.358Z,4.56
2023-02-05T12:49:15.727Z,4.57
2023-02-05T12:51:54.109Z,4.64
2023-02-05T12:54:46.350Z,4.82
2023-02-05T12:57:20.587Z,6.67
2023-02-05T12:59:55.048Z,6.66
2023-02-05T13:02:36.803Z,6.02
2023-02-05T13:05:34.008Z,5.65
2023-02-05T13:08:31.024Z,5.53
2023-02-05T13:11:07.060Z,5.11
2023-02-05T13:13:48.167Z,5.04
2023-02-05T13:19:10.004Z,5.00
2023-02-05T13:21:55.361Z,4.86
2023-02-05T13:25:06.199Z,4.78
2023-02-05T13:27:56.904Z,4.83
2023-02-05T13:33:08.338Z,4.73
2023-02-05T13:35:49.638Z,4.75
2023-02-05T13:38:55.098Z,5.03
2023-02-05T13:41:47.133Z,5.70
2023-02-05T13:44:28.752Z,5.48
2023-02-05T13:47:07.219Z,5.68
2023-02-05T13:49:50.878Z,5.69
2023-02-05T13:52:20.182Z,5.59
2023-02-05T13:55:16.406Z,5.76
2023-02-05T13:58:10.817Z,5.72
2023-02-05T14:00:40.441Z,5.68
2023-02-05T14:03:09.883Z,5.58
2023-02-05T14:08:29.658Z,5.47
2023-02-05T14:11:02.490Z,5.45
2023-02-05T14:13:34.653Z,5.15
2023-02-05T14:16:32.926Z,5.06
2023-02-05T14:18:59.389Z,4.95
2023-02-05T14:21:31.718Z,4.90
2023-02-05T14:24:03.262Z,4.84
2023-02-05T14:26:49.245Z,4.80
2023-02-05T14:29:45.021Z,4.78
2023-02-05T14:32:12.586Z,4.77
2023-02-05T14:34:39.082Z,4.79
2023-02-05T14:37:05.863Z,4.81
2023-02-05T14:39:34.198Z,4.84
2023-02-05T14:42:05.474Z,4.85
2023-02-05T14:44:34.880Z,4.76
2023-02-05T14:47:04.153Z,4.94
2023-02-05T14:49:33.553Z,4.88
2023-02-05T14:52:27.032Z,4.85
2023-02-05T14:55:01.081Z,4.76
2023-02-05T14:57:39.136Z,4.73
2023-02-05T15:00:21.840Z,4.74
2023-02-05T15:02:55.758Z,4.69
2023-02-05T15:05:41.558Z,4.80
2023-02-05T15:11:12.066Z,4.87
2023-02-05T15:13:38.849Z,4.87
2023-02-05T15:16:11.127Z,4.72
2023-02-05T15:18:58.713Z,4.74
2023-02-05T15:21:33.537Z,4.71
2023-02-05T15:24:22.349Z,4.72
2023-02-05T15:27:05.902Z,4.71
2023-02-05T15:29:43.734Z,4.65
2023-02-05T15:35:12.677Z,4.69
2023-02-05T15:37:46.176Z,4.61
2023-02-05T15:40:20.155Z,4.50
2023-02-05T15:42:53.275Z,4.58
2023-02-05T15:45:27.314Z,4.50
2023-02-05T15:48:11.556Z,4.49
2023-02-05T15:50:47.579Z,4.57
2023-02-05T15:53:33.132Z,4.53
2023-02-05T15:56:25.020Z,4.52
2023-02-05T15:58:55.117Z,4.52
2023-02-05T16:01:24.400Z,4.50
2023-02-05T16:03:51.104Z,4.51
2023-02-05T16:06:20.086Z,4.53
2023-02-05T16:08:48.825Z,4.60
2023-02-05T16:11:33.541Z,4.66
2023-02-05T16:14:05.513Z,4.62
2023-02-05T16:16:34.982Z,4.60
2023-02-05T16:19:06.120Z,4.59
2023-02-05T16:21:46.054Z,4.63
2023-02-05T16:24:27.196Z,4.52
2023-02-05T16:27:11.571Z,4.55
2023-02-05T16:29:47.965Z,4.49
2023-02-05T16:35:33.980Z,4.50
2023-02-05T16:38:02.236Z,4.55
2023-02-05T16:40:55.096Z,4.45
2023-02-05T16:43:35.539Z,4.47
2023-02-05T16:46:07.842Z,4.60
2023-02-05T16:48:41.794Z,4.59
2023-02-05T16:51:35.468Z,4.54
2023-02-05T16:54:11.165Z,4.49
2023-02-05T16:56:47.506Z,4.52
2023-02-05T17:01:59.744Z,4.49
2023-02-05T17:04:35.762Z,4.55
2023-02-05T17:07:04.464Z,4.51
2023-02-05T17:09:36.832Z,4.53
2023-02-05T17:12:21.644Z,4.59
2023-02-05T17:15:04.776Z,4.56
2023-02-05T17:17:31.992Z,4.57
2023-02-05T17:20:05.828Z,4.49
2023-02-05T17:22:34.560Z,4.42
2023-02-05T17:25:02.218Z,4.68
2023-02-05T17:27:36.475Z,4.79
2023-02-05T17:30:05.400Z,4.91
2023-02-05T17:32:32.828Z,4.74
2023-02-05T17:35:00.554Z,4.74
2023-02-05T17:37:27.294Z,4.64
2023-02-05T17:39:55.647Z,4.68
2023-02-05T17:42:24.611Z,4.61
2023-02-05T17:44:51.868Z,4.64
2023-02-05T17:47:19.089Z,4.56
2023-02-05T17:49:46.127Z,4.58
2023-02-05T17:52:12.745Z,4.53
2023-02-05T17:54:39.925Z,4.47
2023-02-05T17:57:20.710Z,4.51
2023-02-05T17:59:48.222Z,4.50
2023-02-05T18:02:16.011Z,5.19
2023-02-05T18:04:44.845Z,4.74
2023-02-05T18:07:26.769Z,4.65
2023-02-05T18:09:53.304Z,4.72
2023-02-05T18:12:19.814Z,4.84
2023-02-05T18:17:20.191Z,4.49
2023-02-05T18:19:46.744Z,4.53
2023-02-05T18:22:13.558Z,4.36
2023-02-05T18:24:40.303Z,4.37
2023-02-05T18:27:12.130Z,4.32
2023-02-05T18:29:39.824Z,4.32
2023-02-05T18:32:07.451Z,4.35
2023-02-05T18:37:08.077Z,4.32
2023-02-05T18:39:34.610Z,4.31
2023-02-05T18:42:01.499Z,4.26
2023-02-05T18:44:28.280Z,4.22
2023-02-05T18:46:54.807Z,4.11
2023-02-05T18:49:21.376Z,4.02
2023-02-05T18:51:47.976Z,3.97
2023-02-05T18:54:14.637Z,3.92
2023-02-05T18:56:41.206Z,4.11
2023-02-05T18:59:09.722Z,4.02
2023-02-05T19:01:38.539Z,3.97
2023-02-05T19:04:14.622Z,4.10
2023-02-05T19:06:42.683Z,4.02
2023-02-05T19:09:09.352Z,3.96
2023-02-05T19:11:40.991Z,4.13
2023-02-05T19:14:11.433Z,4.09
2023-02-05T19:16:39.602Z,4.07
2023-02-05T19:19:07.176Z,4.10
2023-02-05T19:21:34.675Z,4.06
2023-02-05T19:24:05.677Z,4.12
2023-02-05T19:26:33.655Z,4.14
2023-02-05T19:29:03.293Z,4.01
2023-02-05T19:31:33.369Z,3.98
2023-02-05T19:34:00.998Z,4.20
2023-02-05T19:36:29.132Z,4.06
2023-02-05T19:38:56.528Z,4.03
2023-02-05T19:41:26.476Z,4.11
2023-02-05T19:43:56.518Z,4.17
2023-02-05T19:46:25.733Z,4.27
2023-02-05T19:48:53.301Z,4.11
2023-02-05T19:51:20.470Z,4.05
2023-02-05T19:53:47.603Z,4.01
2023-02-05T19:56:19.994Z,4.04
2023-02-05T19:58:49.182Z,3.96
2023-02-05T20:04:12.389Z,3.80
2023-02-05T20:06:39.688Z,3.78
2023-02-05T20:11:45.344Z,3.62
2023-02-05T20:14:12.377Z,3.53
2023-02-05T20:16:42.369Z,3.61
2023-02-05T20:19:12.807Z,3.64
2023-02-05T20:21:39.632Z,3.61
2023-02-05T20:24:07.497Z,3.67
2023-02-05T20:26:35.360Z,3.71
2023-02-05T20:29:20.622Z,3.73
2023-02-05T20:31:49.615Z,3.69
2023-02-05T20:37:02.387Z,3.67
2023-02-05T20:39:29.756Z,3.74
2023-02-05T20:41:58.279Z,3.66
2023-02-05T20:44:26.376Z,3.70
2023-02-05T20:46:53.121Z,3.80
2023-02-05T20:49:19.815Z,3.66
2023-02-05T20:51:47.102Z,3.74
2023-02-05T20:54:13.783Z,3.70
2023-02-05T20:56:40.328Z,3.88
2023-02-05T20:59:09.321Z,3.94
2023-02-05T21:01:37.454Z,3.91
2023-02-05T21:04:05.632Z,3.74
2023-02-05T21:06:34.966Z,3.77
2023-02-05T21:09:02.016Z,3.65
2023-02-05T21:14:08.147Z,3.67
2023-02-05T21:16:36.421Z,3.67
2023-02-05T21:19:05.733Z,3.73
2023-02-05T21:21:35.508Z,3.73
2023-02-05T21:24:04.975Z,4.51
2023-02-05T21:26:38.070Z,4.09
2023-02-05T21:29:07.759Z,3.97
2023-02-05T21:31:39.501Z,3.85
2023-02-05T21:34:09.097Z,3.78
2023-02-05T21:36:35.698Z,3.70
2023-02-05T21:39:02.392Z,3.67
2023-02-05T21:41:29.030Z,3.57
2023-02-05T21:43:59.030Z,3.75
2023-02-05T21:46:27.587Z,3.76
2023-02-05T21:48:55.824Z,3.77
2023-02-05T21:51:24.539Z,3.66
2023-02-05T21:53:59.435Z,3.67
2023-02-05T21:56:29.325Z,3.71
2023-02-05T21:58:56.247Z,3.59
2023-02-05T22:01:27.931Z,3.56
2023-02-05T22:03:57.545Z,3.57
2023-02-05T22:06:26.430Z,3.54
2023-02-05T22:08:53.202Z,3.64
2023-02-05T22:11:21.658Z,3.62
2023-02-05T22:13:50.697Z,3.59
2023-02-05T22:16:19.012Z,3.63
2023-02-05T22:18:46.073Z,3.61
2023-02-05T22:21:18.673Z,3.65
2023-02-05T22:23:50.828Z,3.64
2023-02-05T22:26:23.284Z,3.62
2023-02-05T22:28:50.708Z,3.57
2023-02-05T22:31:20.427Z,3.52
2023-02-05T22:33:48.870Z,3.60
2023-02-05T22:36:17.933Z,3.58
2023-02-05T22:38:44.684Z,3.49
2023-02-05T22:41:15.440Z,3.39
2023-02-05T22:43:42.379Z,3.46
2023-02-05T22:46:12.018Z,3.54
2023-02-05T22:48:40.570Z,3.50
2023-02-05T22:51:11.123Z,3.67
2023-02-05T22:53:37.692Z,3.42
2023-02-05T22:56:06.893Z,3.52
2023-02-05T22:58:34.510Z,3.61
2023-02-05T23:01:09.667Z,3.47
2023-02-05T23:03:36.948Z,3.39
2023-02-05T23:06:16.767Z,3.30
2023-02-05T23:08:44.288Z,3.39
2023-02-05T23:13:50.368Z,3.32
2023-02-05T23:16:21.918Z,3.47
2023-02-05T23:18:49.421Z,3.39
2023-02-05T23:21:19.688Z,3.31
2023-02-05T23:23:46.423Z,3.26
2023-02-05T23:26:19.129Z,3.41
2023-02-05T23:28:46.414Z,3.36
2023-02-05T23:31:13.165Z,3.41
2023-02-05T23:33:39.894Z,3.49
2023-02-05T23:36:07.740Z,3.41
2023-02-05T23:38:34.907Z,3.38
2023-02-05T23:41:01.815Z,3.41
2023-02-05T23:43:28.487Z,3.42
2023-02-05T23:45:55.155Z,3.30
2023-02-05T23:48:21.705Z,3.39
2023-02-05T23:50:55.190Z,3.45
2023-02-05T23:53:21.715Z,3.38
2023-02-05T23:55:50.136Z,3.23
2023-02-05T23:58:18.273Z,3.19
